sensor_id;sensor_type;location;lat;lon;timestamp;P1;durP1;ratioP1;P2;durP2;ratioP2
41323;SDS011;27073;51.128;4.220;2022-12-18T00:00:46;56.83;;;31.48;;
41323;SDS011;27073;51.128;4.220;2022-12-18T00:03:13;63.92;;;34.70;;
41323;SDS011;27073;51.128;4.220;2022-12-18T00:05:49;56.88;;;32.20;;
41323;SDS011;27073;51.128;4.220;2022-12-18T00:08:16;60.05;;;33.55;;
41323;SDS011;27073;51.128;4.220;2022-12-18T00:10:42;62.80;;;33.28;;
41323;SDS011;27073;51.128;4.220;2022-12-18T00:13:09;64.20;;;32.65;;
41323;SDS011;27073;51.128;4.220;2022-12-18T00:15:35;58.95;;;33.20;;
41323;SDS011;27073;51.128;4.220;2022-12-18T00:18:03;60.50;;;33.00;;
41323;SDS011;27073;51.128;4.220;2022-12-18T00:20:28;60.28;;;33.15;;
41323;SDS011;27073;51.128;4.220;2022-12-18T00:22:54;54.65;;;33.47;;
41323;SDS011;27073;51.128;4.220;2022-12-18T00:25:20;55.63;;;32.97;;
41323;SDS011;27073;51.128;4.220;2022-12-18T00:27:46;54.40;;;31.17;;
41323;SDS011;27073;51.128;4.220;2022-12-18T00:30:13;56.72;;;31.58;;
41323;SDS011;27073;51.128;4.220;2022-12-18T00:32:39;53.45;;;30.52;;
41323;SDS011;27073;51.128;4.220;2022-12-18T00:35:05;57.25;;;33.10;;
41323;SDS011;27073;51.128;4.220;2022-12-18T00:37:33;60.85;;;32.55;;
41323;SDS011;27073;51.128;4.220;2022-12-18T00:39:59;58.25;;;31.52;;
41323;SDS011;27073;51.128;4.220;2022-12-18T00:42:26;59.08;;;30.85;;
41323;SDS011;27073;51.128;4.220;2022-12-18T00:45:10;58.85;;;31.20;;
41323;SDS011;27073;51.128;4.220;2022-12-18T00:47:36;60.58;;;32.60;;
41323;SDS011;27073;51.128;4.220;2022-12-18T00:50:02;57.80;;;31.90;;
41323;SDS011;27073;51.128;4.220;2022-12-18T00:52:28;59.60;;;32.10;;
41323;SDS011;27073;51.128;4.220;2022-12-18T00:54:53;59.75;;;31.85;;
41323;SDS011;27073;51.128;4.220;2022-12-18T00:57:19;57.13;;;32.15;;
41323;SDS011;27073;51.128;4.220;2022-12-18T00:59:45;58.58;;;32.38;;
41323;SDS011;27073;51.128;4.220;2022-12-18T01:02:10;56.28;;;31.77;;
41323;SDS011;27073;51.128;4.220;2022-12-18T01:04:36;55.72;;;32.42;;
41323;SDS011;27073;51.128;4.220;2022-12-18T01:07:02;55.72;;;31.70;;
41323;SDS011;27073;51.128;4.220;2022-12-18T01:09:27;58.42;;;31.38;;
41323;SDS011;27073;51.128;4.220;2022-12-18T01:11:53;57.08;;;32.55;;
41323;SDS011;27073;51.128;4.220;2022-12-18T01:14:19;57.38;;;31.45;;
41323;SDS011;27073;51.128;4.220;2022-12-18T01:16:45;57.72;;;32.00;;
41323;SDS011;27073;51.128;4.220;2022-12-18T01:19:11;59.50;;;31.80;;
41323;SDS011;27073;51.128;4.220;2022-12-18T01:21:36;61.95;;;31.30;;
41323;SDS011;27073;51.128;4.220;2022-12-18T01:24:03;57.10;;;32.47;;
41323;SDS011;27073;51.128;4.220;2022-12-18T01:26:29;58.92;;;32.03;;
41323;SDS011;27073;51.128;4.220;2022-12-18T01:28:56;58.60;;;32.17;;
41323;SDS011;27073;51.128;4.220;2022-12-18T01:31:23;53.53;;;30.85;;
41323;SDS011;27073;51.128;4.220;2022-12-18T01:33:51;55.67;;;31.25;;
41323;SDS011;27073;51.128;4.220;2022-12-18T01:36:39;55.03;;;32.47;;
41323;SDS011;27073;51.128;4.220;2022-12-18T01:39:08;54.05;;;29.77;;
41323;SDS011;27073;51.128;4.220;2022-12-18T01:41:40;56.85;;;32.08;;
41323;SDS011;27073;51.128;4.220;2022-12-18T01:49:54;54.75;;;30.30;;
41323;SDS011;27073;51.128;4.220;2022-12-18T01:52:21;54.33;;;31.38;;
41323;SDS011;27073;51.128;4.220;2022-12-18T01:54:47;53.78;;;31.17;;
41323;SDS011;27073;51.128;4.220;2022-12-18T01:57:15;53.05;;;31.45;;
41323;SDS011;27073;51.128;4.220;2022-12-18T01:59:42;60.78;;;32.58;;
41323;SDS011;27073;51.128;4.220;2022-12-18T02:02:12;61.88;;;30.15;;
41323;SDS011;27073;51.128;4.220;2022-12-18T02:04:40;55.53;;;30.65;;
41323;SDS011;27073;51.128;4.220;2022-12-18T02:07:08;55.13;;;31.75;;
41323;SDS011;27073;51.128;4.220;2022-12-18T02:09:45;56.08;;;31.25;;
41323;SDS011;27073;51.128;4.220;2022-12-18T02:12:16;57.08;;;32.92;;
41323;SDS011;27073;51.128;4.220;2022-12-18T02:14:59;57.58;;;32.47;;
41323;SDS011;27073;51.128;4.220;2022-12-18T02:20:16;59.80;;;34.88;;
41323;SDS011;27073;51.128;4.220;2022-12-18T02:28:33;59.15;;;32.58;;
41323;SDS011;27073;51.128;4.220;2022-12-18T02:31:05;59.10;;;31.13;;
41323;SDS011;27073;51.128;4.220;2022-12-18T02:36:01;57.55;;;31.48;;
41323;SDS011;27073;51.128;4.220;2022-12-18T02:38:29;52.63;;;30.85;;
41323;SDS011;27073;51.128;4.220;2022-12-18T02:41:01;56.92;;;31.27;;
41323;SDS011;27073;51.128;4.220;2022-12-18T02:43:29;54.10;;;31.58;;
41323;SDS011;27073;51.128;4.220;2022-12-18T02:45:57;53.58;;;31.38;;
41323;SDS011;27073;51.128;4.220;2022-12-18T02:48:29;52.97;;;31.27;;
41323;SDS011;27073;51.128;4.220;2022-12-18T02:51:07;53.28;;;30.50;;
41323;SDS011;27073;51.128;4.220;2022-12-18T02:54:03;55.13;;;30.67;;
41323;SDS011;27073;51.128;4.220;2022-12-18T02:56:38;55.20;;;30.48;;
41323;SDS011;27073;51.128;4.220;2022-12-18T02:59:18;43.03;;;24.60;;
41323;SDS011;27073;51.128;4.220;2022-12-18T03:02:05;55.55;;;30.80;;
41323;SDS011;27073;51.128;4.220;2022-12-18T03:04:59;51.28;;;29.75;;
41323;SDS011;27073;51.128;4.220;2022-12-18T03:07:36;50.22;;;29.10;;
41323;SDS011;27073;51.128;4.220;2022-12-18T03:10:09;48.78;;;29.50;;
41323;SDS011;27073;51.128;4.220;2022-12-18T03:12:42;51.83;;;29.40;;
41323;SDS011;27073;51.128;4.220;2022-12-18T03:17:57;47.30;;;28.17;;
41323;SDS011;27073;51.128;4.220;2022-12-18T03:20:30;49.83;;;28.98;;
41323;SDS011;27073;51.128;4.220;2022-12-18T03:23:15;52.40;;;29.13;;
41323;SDS011;27073;51.128;4.220;2022-12-18T03:25:47;48.45;;;28.23;;
41323;SDS011;27073;51.128;4.220;2022-12-18T03:28:15;48.65;;;28.45;;
41323;SDS011;27073;51.128;4.220;2022-12-18T03:30:57;45.65;;;27.33;;
41323;SDS011;27073;51.128;4.220;2022-12-18T03:35:56;46.17;;;27.00;;
41323;SDS011;27073;51.128;4.220;2022-12-18T03:38:22;47.88;;;27.20;;
41323;SDS011;27073;51.128;4.220;2022-12-18T03:40:55;51.67;;;27.48;;
41323;SDS011;27073;51.128;4.220;2022-12-18T03:43:35;47.47;;;28.27;;
41323;SDS011;27073;51.128;4.220;2022-12-18T03:46:15;47.95;;;25.52;;
41323;SDS011;27073;51.128;4.220;2022-12-18T03:48:48;49.35;;;27.08;;
41323;SDS011;27073;51.128;4.220;2022-12-18T03:54:22;47.45;;;27.52;;
41323;SDS011;27073;51.128;4.220;2022-12-18T03:57:02;50.67;;;27.77;;
41323;SDS011;27073;51.128;4.220;2022-12-18T03:59:33;47.13;;;28.27;;
41323;SDS011;27073;51.128;4.220;2022-12-18T04:02:00;44.15;;;27.25;;
41323;SDS011;27073;51.128;4.220;2022-12-18T04:04:28;44.95;;;27.83;;
41323;SDS011;27073;51.128;4.220;2022-12-18T04:09:25;45.85;;;25.52;;
41323;SDS011;27073;51.128;4.220;2022-12-18T04:11:52;43.65;;;26.05;;
41323;SDS011;27073;51.128;4.220;2022-12-18T04:14:18;51.05;;;27.45;;
41323;SDS011;27073;51.128;4.220;2022-12-18T04:16:48;46.78;;;26.70;;
41323;SDS011;27073;51.128;4.220;2022-12-18T04:19:16;44.85;;;24.73;;
41323;SDS011;27073;51.128;4.220;2022-12-18T04:21:43;46.38;;;26.33;;
41323;SDS011;27073;51.128;4.220;2022-12-18T04:24:11;50.78;;;27.13;;
41323;SDS011;27073;51.128;4.220;2022-12-18T04:26:41;42.88;;;25.40;;
41323;SDS011;27073;51.128;4.220;2022-12-18T04:29:14;41.72;;;25.60;;
41323;SDS011;27073;51.128;4.220;2022-12-18T04:31:41;42.30;;;25.70;;
41323;SDS011;27073;51.128;4.220;2022-12-18T04:34:07;44.72;;;24.92;;
41323;SDS011;27073;51.128;4.220;2022-12-18T04:36:39;41.08;;;24.90;;
41323;SDS011;27073;51.128;4.220;2022-12-18T04:39:05;42.45;;;25.70;;
41323;SDS011;27073;51.128;4.220;2022-12-18T04:41:32;37.90;;;24.10;;
41323;SDS011;27073;51.128;4.220;2022-12-18T04:43:58;38.30;;;23.45;;
41323;SDS011;27073;51.128;4.220;2022-12-18T04:46:24;35.50;;;22.02;;
41323;SDS011;27073;51.128;4.220;2022-12-18T04:48:49;37.17;;;23.50;;
41323;SDS011;27073;51.128;4.220;2022-12-18T04:51:15;38.10;;;23.30;;
41323;SDS011;27073;51.128;4.220;2022-12-18T04:53:41;37.95;;;23.08;;
41323;SDS011;27073;51.128;4.220;2022-12-18T04:56:07;41.40;;;24.45;;
41323;SDS011;27073;51.128;4.220;2022-12-18T04:58:35;42.60;;;23.85;;
41323;SDS011;27073;51.128;4.220;2022-12-18T05:01:03;43.30;;;24.92;;
41323;SDS011;27073;51.128;4.220;2022-12-18T05:03:29;47.90;;;27.05;;
41323;SDS011;27073;51.128;4.220;2022-12-18T05:05:54;54.00;;;30.38;;
41323;SDS011;27073;51.128;4.220;2022-12-18T05:08:20;49.35;;;26.10;;
41323;SDS011;27073;51.128;4.220;2022-12-18T05:10:46;42.22;;;25.25;;
41323;SDS011;27073;51.128;4.220;2022-12-18T05:13:12;41.00;;;23.77;;
41323;SDS011;27073;51.128;4.220;2022-12-18T05:15:38;36.30;;;22.88;;
41323;SDS011;27073;51.128;4.220;2022-12-18T05:18:04;42.65;;;23.50;;
41323;SDS011;27073;51.128;4.220;2022-12-18T05:20:30;40.60;;;23.20;;
41323;SDS011;27073;51.128;4.220;2022-12-18T05:22:56;42.20;;;23.60;;
41323;SDS011;27073;51.128;4.220;2022-12-18T05:25:22;37.08;;;22.48;;
41323;SDS011;27073;51.128;4.220;2022-12-18T05:27:48;43.30;;;24.63;;
41323;SDS011;27073;51.128;4.220;2022-12-18T05:30:14;43.47;;;24.75;;
41323;SDS011;27073;51.128;4.220;2022-12-18T05:32:41;38.58;;;22.77;;
41323;SDS011;27073;51.128;4.220;2022-12-18T05:35:07;35.05;;;22.08;;
41323;SDS011;27073;51.128;4.220;2022-12-18T05:37:34;37.55;;;22.45;;
41323;SDS011;27073;51.128;4.220;2022-12-18T05:40:00;39.45;;;23.23;;
41323;SDS011;27073;51.128;4.220;2022-12-18T05:42:27;34.85;;;22.15;;
41323;SDS011;27073;51.128;4.220;2022-12-18T05:44:53;41.85;;;22.58;;
41323;SDS011;27073;51.128;4.220;2022-12-18T05:47:18;36.03;;;21.17;;
41323;SDS011;27073;51.128;4.220;2022-12-18T05:49:44;37.08;;;22.60;;
41323;SDS011;27073;51.128;4.220;2022-12-18T05:52:10;33.35;;;21.15;;
41323;SDS011;27073;51.128;4.220;2022-12-18T05:54:36;41.58;;;22.60;;
41323;SDS011;27073;51.128;4.220;2022-12-18T05:57:01;37.53;;;23.95;;
41323;SDS011;27073;51.128;4.220;2022-12-18T05:59:27;37.47;;;23.73;;
41323;SDS011;27073;51.128;4.220;2022-12-18T06:01:53;41.63;;;24.63;;
41323;SDS011;27073;51.128;4.220;2022-12-18T06:04:18;38.45;;;22.00;;
41323;SDS011;27073;51.128;4.220;2022-12-18T06:06:44;41.50;;;22.83;;
41323;SDS011;27073;51.128;4.220;2022-12-18T06:09:10;40.22;;;22.52;;
41323;SDS011;27073;51.128;4.220;2022-12-18T06:11:37;36.92;;;23.60;;
41323;SDS011;27073;51.128;4.220;2022-12-18T06:14:04;38.85;;;23.10;;
41323;SDS011;27073;51.128;4.220;2022-12-18T06:16:30;41.60;;;22.35;;
41323;SDS011;27073;51.128;4.220;2022-12-18T06:19:00;39.28;;;21.23;;
41323;SDS011;27073;51.128;4.220;2022-12-18T06:21:28;34.67;;;21.48;;
41323;SDS011;27073;51.128;4.220;2022-12-18T06:23:54;39.50;;;22.23;;
41323;SDS011;27073;51.128;4.220;2022-12-18T06:26:20;36.67;;;21.10;;
41323;SDS011;27073;51.128;4.220;2022-12-18T06:28:45;35.80;;;21.67;;
41323;SDS011;27073;51.128;4.220;2022-12-18T06:31:11;33.47;;;20.50;;
41323;SDS011;27073;51.128;4.220;2022-12-18T06:33:37;36.22;;;21.33;;
41323;SDS011;27073;51.128;4.220;2022-12-18T06:36:05;39.22;;;20.58;;
41323;SDS011;27073;51.128;4.220;2022-12-18T06:38:33;36.28;;;21.52;;
41323;SDS011;27073;51.128;4.220;2022-12-18T06:41:00;33.78;;;20.25;;
41323;SDS011;27073;51.128;4.220;2022-12-18T06:43:25;34.20;;;20.40;;
41323;SDS011;27073;51.128;4.220;2022-12-18T06:45:57;33.85;;;19.95;;
41323;SDS011;27073;51.128;4.220;2022-12-18T06:48:24;33.25;;;20.13;;
41323;SDS011;27073;51.128;4.220;2022-12-18T06:50:49;33.95;;;20.80;;
41323;SDS011;27073;51.128;4.220;2022-12-18T06:53:15;36.30;;;21.02;;
41323;SDS011;27073;51.128;4.220;2022-12-18T06:55:40;38.90;;;22.75;;
41323;SDS011;27073;51.128;4.220;2022-12-18T06:58:06;35.00;;;21.95;;
41323;SDS011;27073;51.128;4.220;2022-12-18T07:00:32;39.55;;;23.60;;
41323;SDS011;27073;51.128;4.220;2022-12-18T07:02:57;33.92;;;21.27;;
41323;SDS011;27073;51.128;4.220;2022-12-18T07:05:23;33.97;;;20.73;;
41323;SDS011;27073;51.128;4.220;2022-12-18T07:07:49;39.33;;;21.33;;
41323;SDS011;27073;51.128;4.220;2022-12-18T07:10:14;33.97;;;19.33;;
41323;SDS011;27073;51.128;4.220;2022-12-18T07:12:40;37.00;;;20.42;;
41323;SDS011;27073;51.128;4.220;2022-12-18T07:15:06;29.40;;;20.10;;
41323;SDS011;27073;51.128;4.220;2022-12-18T07:17:32;38.70;;;22.30;;
41323;SDS011;27073;51.128;4.220;2022-12-18T07:19:58;30.75;;;19.77;;
41323;SDS011;27073;51.128;4.220;2022-12-18T07:22:24;33.05;;;19.90;;
41323;SDS011;27073;51.128;4.220;2022-12-18T07:24:51;32.35;;;19.77;;
41323;SDS011;27073;51.128;4.220;2022-12-18T07:27:16;34.38;;;20.00;;
41323;SDS011;27073;51.128;4.220;2022-12-18T07:29:42;33.75;;;20.33;;
41323;SDS011;27073;51.128;4.220;2022-12-18T07:32:08;31.50;;;20.25;;
41323;SDS011;27073;51.128;4.220;2022-12-18T07:34:34;31.02;;;19.15;;
41323;SDS011;27073;51.128;4.220;2022-12-18T07:36:59;32.33;;;19.63;;
41323;SDS011;27073;51.128;4.220;2022-12-18T07:39:25;34.85;;;21.77;;
41323;SDS011;27073;51.128;4.220;2022-12-18T07:41:51;36.38;;;21.55;;
41323;SDS011;27073;51.128;4.220;2022-12-18T07:44:47;31.10;;;19.55;;
41323;SDS011;27073;51.128;4.220;2022-12-18T07:47:12;33.55;;;19.63;;
41323;SDS011;27073;51.128;4.220;2022-12-18T07:49:38;32.17;;;19.35;;
41323;SDS011;27073;51.128;4.220;2022-12-18T07:52:04;29.48;;;18.80;;
41323;SDS011;27073;51.128;4.220;2022-12-18T07:54:29;29.83;;;18.05;;
41323;SDS011;27073;51.128;4.220;2022-12-18T07:56:55;31.75;;;19.67;;
41323;SDS011;27073;51.128;4.220;2022-12-18T07:59:21;29.25;;;19.00;;
41323;SDS011;27073;51.128;4.220;2022-12-18T08:01:46;29.85;;;18.20;;
41323;SDS011;27073;51.128;4.220;2022-12-18T08:04:12;29.70;;;18.30;;
41323;SDS011;27073;51.128;4.220;2022-12-18T08:06:38;35.13;;;19.67;;
41323;SDS011;27073;51.128;4.220;2022-12-18T08:09:03;31.65;;;19.90;;
41323;SDS011;27073;51.128;4.220;2022-12-18T08:11:29;32.35;;;19.80;;
41323;SDS011;27073;51.128;4.220;2022-12-18T08:13:55;34.67;;;20.45;;
41323;SDS011;27073;51.128;4.220;2022-12-18T08:16:22;34.13;;;21.35;;
41323;SDS011;27073;51.128;4.220;2022-12-18T08:18:48;28.77;;;19.20;;
41323;SDS011;27073;51.128;4.220;2022-12-18T08:21:17;28.80;;;18.30;;
41323;SDS011;27073;51.128;4.220;2022-12-18T08:23:46;26.15;;;16.15;;
41323;SDS011;27073;51.128;4.220;2022-12-18T08:26:12;29.95;;;18.08;;
41323;SDS011;27073;51.128;4.220;2022-12-18T08:28:38;26.98;;;17.75;;
41323;SDS011;27073;51.128;4.220;2022-12-18T08:31:04;26.63;;;16.63;;
41323;SDS011;27073;51.128;4.220;2022-12-18T08:33:31;30.58;;;16.33;;
41323;SDS011;27073;51.128;4.220;2022-12-18T08:35:57;26.83;;;16.02;;
41323;SDS011;27073;51.128;4.220;2022-12-18T08:38:24;26.38;;;15.98;;
41323;SDS011;27073;51.128;4.220;2022-12-18T08:40:53;25.83;;;15.77;;
41323;SDS011;27073;51.128;4.220;2022-12-18T08:43:25;24.73;;;14.95;;
41323;SDS011;27073;51.128;4.220;2022-12-18T08:46:10;26.67;;;16.58;;
41323;SDS011;27073;51.128;4.220;2022-12-18T08:48:36;30.35;;;17.23;;
41323;SDS011;27073;51.128;4.220;2022-12-18T08:51:01;23.80;;;15.40;;
41323;SDS011;27073;51.128;4.220;2022-12-18T08:53:27;30.02;;;16.88;;
41323;SDS011;27073;51.128;4.220;2022-12-18T08:55:53;28.52;;;16.58;;
41323;SDS011;27073;51.128;4.220;2022-12-18T08:58:19;30.27;;;16.70;;
41323;SDS011;27073;51.128;4.220;2022-12-18T09:00:45;29.42;;;17.02;;
41323;SDS011;27073;51.128;4.220;2022-12-18T09:03:15;26.88;;;16.45;;
41323;SDS011;27073;51.128;4.220;2022-12-18T09:05:42;25.65;;;15.77;;
41323;SDS011;27073;51.128;4.220;2022-12-18T09:08:10;29.02;;;19.65;;
41323;SDS011;27073;51.128;4.220;2022-12-18T09:10:45;25.27;;;16.13;;
41323;SDS011;27073;51.128;4.220;2022-12-18T09:13:13;24.52;;;15.00;;
41323;SDS011;27073;51.128;4.220;2022-12-18T09:15:40;21.42;;;14.50;;
41323;SDS011;27073;51.128;4.220;2022-12-18T09:18:24;21.27;;;14.77;;
41323;SDS011;27073;51.128;4.220;2022-12-18T09:20:50;27.10;;;15.25;;
41323;SDS011;27073;51.128;4.220;2022-12-18T09:23:17;25.98;;;15.25;;
41323;SDS011;27073;51.128;4.220;2022-12-18T09:25:43;22.98;;;14.38;;
41323;SDS011;27073;51.128;4.220;2022-12-18T09:28:11;24.60;;;15.00;;
41323;SDS011;27073;51.128;4.220;2022-12-18T09:30:41;26.85;;;16.10;;
41323;SDS011;27073;51.128;4.220;2022-12-18T09:33:09;22.15;;;12.93;;
41323;SDS011;27073;51.128;4.220;2022-12-18T09:35:38;21.92;;;12.93;;
41323;SDS011;27073;51.128;4.220;2022-12-18T09:38:05;33.17;;;15.50;;
41323;SDS011;27073;51.128;4.220;2022-12-18T09:40:35;33.00;;;17.13;;
41323;SDS011;27073;51.128;4.220;2022-12-18T09:43:04;26.85;;;15.70;;
41323;SDS011;27073;51.128;4.220;2022-12-18T09:45:35;26.48;;;15.30;;
41323;SDS011;27073;51.128;4.220;2022-12-18T09:48:05;25.13;;;15.30;;
41323;SDS011;27073;51.128;4.220;2022-12-18T09:50:40;23.60;;;14.20;;
41323;SDS011;27073;51.128;4.220;2022-12-18T09:53:09;22.48;;;13.48;;
41323;SDS011;27073;51.128;4.220;2022-12-18T09:55:41;22.70;;;13.55;;
41323;SDS011;27073;51.128;4.220;2022-12-18T10:00:41;19.90;;;13.02;;
41323;SDS011;27073;51.128;4.220;2022-12-18T10:03:11;20.15;;;12.88;;
41323;SDS011;27073;51.128;4.220;2022-12-18T10:05:46;18.13;;;12.75;;
41323;SDS011;27073;51.128;4.220;2022-12-18T10:08:37;21.52;;;13.98;;
41323;SDS011;27073;51.128;4.220;2022-12-18T10:14:15;20.13;;;13.38;;
41323;SDS011;27073;51.128;4.220;2022-12-18T10:22:16;18.98;;;13.07;;
41323;SDS011;27073;51.128;4.220;2022-12-18T10:25:20;19.02;;;12.85;;
41323;SDS011;27073;51.128;4.220;2022-12-18T10:28:03;18.42;;;12.45;;
41323;SDS011;27073;51.128;4.220;2022-12-18T10:30:35;18.85;;;12.80;;
41323;SDS011;27073;51.128;4.220;2022-12-18T10:33:03;21.48;;;14.05;;
41323;SDS011;27073;51.128;4.220;2022-12-18T10:35:28;20.35;;;12.98;;
41323;SDS011;27073;51.128;4.220;2022-12-18T10:38:20;21.73;;;13.85;;
41323;SDS011;27073;51.128;4.220;2022-12-18T10:44:11;20.45;;;14.25;;
41323;SDS011;27073;51.128;4.220;2022-12-18T10:46:47;18.63;;;12.73;;
41323;SDS011;27073;51.128;4.220;2022-12-18T10:49:18;21.15;;;13.05;;
41323;SDS011;27073;51.128;4.220;2022-12-18T10:51:47;20.90;;;13.70;;
41323;SDS011;27073;51.128;4.220;2022-12-18T10:54:18;19.35;;;13.30;;
41323;SDS011;27073;51.128;4.220;2022-12-18T10:56:47;19.00;;;12.93;;
41323;SDS011;27073;51.128;4.220;2022-12-18T10:59:14;21.00;;;13.50;;
41323;SDS011;27073;51.128;4.220;2022-12-18T11:02:23;19.70;;;13.38;;
41323;SDS011;27073;51.128;4.220;2022-12-18T11:04:50;18.98;;;12.90;;
41323;SDS011;27073;51.128;4.220;2022-12-18T11:07:17;21.38;;;12.50;;
41323;SDS011;27073;51.128;4.220;2022-12-18T11:09:42;16.35;;;11.88;;
41323;SDS011;27073;51.128;4.220;2022-12-18T11:12:18;17.10;;;11.90;;
41323;SDS011;27073;51.128;4.220;2022-12-18T11:14:47;19.98;;;12.82;;
41323;SDS011;27073;51.128;4.220;2022-12-18T11:17:26;21.13;;;13.40;;
41323;SDS011;27073;51.128;4.220;2022-12-18T11:20:01;19.60;;;13.32;;
41323;SDS011;27073;51.128;4.220;2022-12-18T11:22:31;23.10;;;13.18;;
41323;SDS011;27073;51.128;4.220;2022-12-18T11:27:36;20.48;;;12.77;;
41323;SDS011;27073;51.128;4.220;2022-12-18T11:30:08;17.73;;;13.25;;
41323;SDS011;27073;51.128;4.220;2022-12-18T11:32:42;22.17;;;12.82;;
41323;SDS011;27073;51.128;4.220;2022-12-18T11:38:22;19.02;;;11.82;;
41323;SDS011;27073;51.128;4.220;2022-12-18T11:40:53;17.75;;;12.30;;
41323;SDS011;27073;51.128;4.220;2022-12-18T11:45:54;16.48;;;12.15;;
41323;SDS011;27073;51.128;4.220;2022-12-18T11:48:36;47.33;;;20.90;;
41323;SDS011;27073;51.128;4.220;2022-12-18T11:51:22;22.73;;;13.65;;
41323;SDS011;27073;51.128;4.220;2022-12-18T11:53:54;18.75;;;13.30;;
41323;SDS011;27073;51.128;4.220;2022-12-18T11:59:04;17.10;;;12.13;;
41323;SDS011;27073;51.128;4.220;2022-12-18T12:04:20;17.98;;;11.90;;
41323;SDS011;27073;51.128;4.220;2022-12-18T12:09:37;16.25;;;12.52;;
41323;SDS011;27073;51.128;4.220;2022-12-18T12:25:27;18.98;;;13.07;;
41323;SDS011;27073;51.128;4.220;2022-12-18T12:36:18;20.58;;;14.50;;
41323;SDS011;27073;51.128;4.220;2022-12-18T12:39:07;21.55;;;14.00;;
41323;SDS011;27073;51.128;4.220;2022-12-18T12:41:37;19.50;;;13.27;;
41323;SDS011;27073;51.128;4.220;2022-12-18T12:44:30;18.48;;;13.88;;
41323;SDS011;27073;51.128;4.220;2022-12-18T12:47:02;20.55;;;14.13;;
41323;SDS011;27073;51.128;4.220;2022-12-18T12:49:49;21.00;;;13.75;;
41323;SDS011;27073;51.128;4.220;2022-12-18T12:52:28;19.50;;;13.30;;
41323;SDS011;27073;51.128;4.220;2022-12-18T12:54:57;19.63;;;13.43;;
41323;SDS011;27073;51.128;4.220;2022-12-18T12:57:30;20.92;;;15.30;;
41323;SDS011;27073;51.128;4.220;2022-12-18T13:05:36;20.50;;;14.25;;
41323;SDS011;27073;51.128;4.220;2022-12-18T13:08:09;19.65;;;15.07;;
41323;SDS011;27073;51.128;4.220;2022-12-18T13:10:40;19.88;;;13.73;;
41323;SDS011;27073;51.128;4.220;2022-12-18T13:13:08;18.85;;;14.27;;
41323;SDS011;27073;51.128;4.220;2022-12-18T13:15:39;20.00;;;14.40;;
41323;SDS011;27073;51.128;4.220;2022-12-18T13:18:11;19.83;;;13.90;;
41323;SDS011;27073;51.128;4.220;2022-12-18T13:25:48;20.85;;;14.30;;
41323;SDS011;27073;51.128;4.220;2022-12-18T13:28:15;21.05;;;14.18;;
41323;SDS011;27073;51.128;4.220;2022-12-18T13:31:01;19.60;;;14.88;;
41323;SDS011;27073;51.128;4.220;2022-12-18T13:39:10;21.73;;;14.80;;
41323;SDS011;27073;51.128;4.220;2022-12-18T13:41:50;20.85;;;14.13;;
41323;SDS011;27073;51.128;4.220;2022-12-18T13:47:01;22.77;;;14.60;;
41323;SDS011;27073;51.128;4.220;2022-12-18T13:49:41;21.60;;;16.10;;
41323;SDS011;27073;51.128;4.220;2022-12-18T13:52:19;23.20;;;15.15;;
41323;SDS011;27073;51.128;4.220;2022-12-18T13:54:49;22.98;;;15.23;;
41323;SDS011;27073;51.128;4.220;2022-12-18T13:57:37;20.38;;;15.63;;
41323;SDS011;27073;51.128;4.220;2022-12-18T14:02:59;20.08;;;15.25;;
41323;SDS011;27073;51.128;4.220;2022-12-18T14:05:26;22.70;;;16.20;;
41323;SDS011;27073;51.128;4.220;2022-12-18T14:07:54;23.10;;;16.23;;
41323;SDS011;27073;51.128;4.220;2022-12-18T14:10:30;22.38;;;16.55;;
41323;SDS011;27073;51.128;4.220;2022-12-18T14:12:57;25.50;;;17.40;;
41323;SDS011;27073;51.128;4.220;2022-12-18T14:15:41;23.05;;;17.40;;
41323;SDS011;27073;51.128;4.220;2022-12-18T14:20:41;20.40;;;14.90;;
41323;SDS011;27073;51.128;4.220;2022-12-18T14:26:01;19.98;;;15.70;;
41323;SDS011;27073;51.128;4.220;2022-12-18T14:28:44;20.67;;;16.55;;
41323;SDS011;27073;51.128;4.220;2022-12-18T14:31:16;25.20;;;16.52;;
41323;SDS011;27073;51.128;4.220;2022-12-18T14:33:50;25.50;;;17.25;;
41323;SDS011;27073;51.128;4.220;2022-12-18T14:36:18;24.50;;;16.52;;
41323;SDS011;27073;51.128;4.220;2022-12-18T14:38:52;24.75;;;17.77;;
41323;SDS011;27073;51.128;4.220;2022-12-18T14:41:20;27.52;;;17.95;;
41323;SDS011;27073;51.128;4.220;2022-12-18T14:43:49;24.40;;;16.48;;
41323;SDS011;27073;51.128;4.220;2022-12-18T14:49:02;30.15;;;17.77;;
41323;SDS011;27073;51.128;4.220;2022-12-18T14:51:33;25.77;;;18.50;;
41323;SDS011;27073;51.128;4.220;2022-12-18T14:54:00;24.27;;;17.52;;
41323;SDS011;27073;51.128;4.220;2022-12-18T14:56:29;27.10;;;18.08;;
41323;SDS011;27073;51.128;4.220;2022-12-18T15:04:26;27.55;;;17.70;;
41323;SDS011;27073;51.128;4.220;2022-12-18T15:07:05;26.45;;;17.67;;
41323;SDS011;27073;51.128;4.220;2022-12-18T15:09:32;24.63;;;18.85;;
41323;SDS011;27073;51.128;4.220;2022-12-18T15:11:59;27.70;;;20.30;;
41323;SDS011;27073;51.128;4.220;2022-12-18T15:14:39;28.10;;;19.20;;
41323;SDS011;27073;51.128;4.220;2022-12-18T15:17:12;30.27;;;19.97;;
41323;SDS011;27073;51.128;4.220;2022-12-18T15:19:42;27.55;;;19.38;;
41323;SDS011;27073;51.128;4.220;2022-12-18T15:24:44;28.40;;;20.40;;
41323;SDS011;27073;51.128;4.220;2022-12-18T15:27:20;29.23;;;20.55;;
41323;SDS011;27073;51.128;4.220;2022-12-18T15:32:32;29.48;;;20.60;;
41323;SDS011;27073;51.128;4.220;2022-12-18T15:37:42;30.02;;;19.45;;
41323;SDS011;27073;51.128;4.220;2022-12-18T15:40:18;32.63;;;20.17;;
41323;SDS011;27073;51.128;4.220;2022-12-18T15:42:45;30.40;;;19.98;;
41323;SDS011;27073;51.128;4.220;2022-12-18T15:45:30;27.02;;;19.05;;
41323;SDS011;27073;51.128;4.220;2022-12-18T15:47:56;33.70;;;21.00;;
41323;SDS011;27073;51.128;4.220;2022-12-18T15:50:21;29.85;;;20.48;;
41323;SDS011;27073;51.128;4.220;2022-12-18T15:52:48;30.73;;;20.92;;
41323;SDS011;27073;51.128;4.220;2022-12-18T15:55:17;30.85;;;20.77;;
41323;SDS011;27073;51.128;4.220;2022-12-18T15:58:04;33.20;;;20.98;;
41323;SDS011;27073;51.128;4.220;2022-12-18T16:00:34;31.65;;;21.23;;
41323;SDS011;27073;51.128;4.220;2022-12-18T16:03:01;29.38;;;19.55;;
41323;SDS011;27073;51.128;4.220;2022-12-18T16:05:28;34.70;;;20.30;;
41323;SDS011;27073;51.128;4.220;2022-12-18T16:07:54;30.58;;;20.88;;
41323;SDS011;27073;51.128;4.220;2022-12-18T16:10:20;33.22;;;20.80;;
41323;SDS011;27073;51.128;4.220;2022-12-18T16:12:46;35.03;;;22.88;;
41323;SDS011;27073;51.128;4.220;2022-12-18T16:15:13;29.33;;;20.17;;
41323;SDS011;27073;51.128;4.220;2022-12-18T16:17:40;32.38;;;21.08;;
41323;SDS011;27073;51.128;4.220;2022-12-18T16:20:13;30.80;;;20.27;;
41323;SDS011;27073;51.128;4.220;2022-12-18T16:22:40;33.70;;;21.52;;
41323;SDS011;27073;51.128;4.220;2022-12-18T16:25:10;34.20;;;22.80;;
41323;SDS011;27073;51.128;4.220;2022-12-18T16:27:42;32.53;;;20.80;;
41323;SDS011;27073;51.128;4.220;2022-12-18T16:30:12;33.40;;;21.88;;
41323;SDS011;27073;51.128;4.220;2022-12-18T16:35:04;37.20;;;22.08;;
41323;SDS011;27073;51.128;4.220;2022-12-18T16:37:30;31.65;;;22.48;;
41323;SDS011;27073;51.128;4.220;2022-12-18T16:39:56;34.97;;;23.60;;
41323;SDS011;27073;51.128;4.220;2022-12-18T16:42:21;32.33;;;21.38;;